sensor_id;sensor_type;location;lat;lon;timestamp;P1;durP1;ratioP1;P2;durP2;ratioP2
39846;SDS011;25517;52.422;10.782;2023-03-03T00:02:17;66.07;;;25.10;;
39846;SDS011;25517;52.422;10.782;2023-03-03T00:04:43;52.88;;;22.40;;
39846;SDS011;25517;52.422;10.782;2023-03-03T00:07:09;51.45;;;21.77;;
39846;SDS011;25517;52.422;10.782;2023-03-03T00:09:35;53.92;;;22.40;;
39846;SDS011;25517;52.422;10.782;2023-03-03T00:12:01;52.45;;;22.42;;
39846;SDS011;25517;52.422;10.782;2023-03-03T00:14:58;57.80;;;22.85;;
39846;SDS011;25517;52.422;10.782;2023-03-03T00:17:24;60.47;;;23.92;;
39846;SDS011;25517;52.422;10.782;2023-03-03T00:19:55;52.47;;;22.02;;
39846;SDS011;25517;52.422;10.782;2023-03-03T00:24:54;47.60;;;20.13;;
39846;SDS011;25517;52.422;10.782;2023-03-03T00:30:00;41.70;;;19.40;;
39846;SDS011;25517;52.422;10.782;2023-03-03T00:32:30;43.42;;;19.10;;
39846;SDS011;25517;52.422;10.782;2023-03-03T00:42:48;39.95;;;18.23;;
39846;SDS011;25517;52.422;10.782;2023-03-03T00:50:51;35.55;;;16.25;;
39846;SDS011;25517;52.422;10.782;2023-03-03T00:53:19;40.20;;;17.52;;
39846;SDS011;25517;52.422;10.782;2023-03-03T00:55:47;38.28;;;16.40;;
39846;SDS011;25517;52.422;10.782;2023-03-03T00:58:13;41.22;;;16.27;;
39846;SDS011;25517;52.422;10.782;2023-03-03T01:00:39;36.08;;;16.30;;
39846;SDS011;25517;52.422;10.782;2023-03-03T01:03:07;40.88;;;16.55;;
39846;SDS011;25517;52.422;10.782;2023-03-03T01:05:35;40.70;;;17.55;;
39846;SDS011;25517;52.422;10.782;2023-03-03T01:08:01;36.72;;;16.58;;
39846;SDS011;25517;52.422;10.782;2023-03-03T01:10:28;46.25;;;19.75;;
39846;SDS011;25517;52.422;10.782;2023-03-03T01:12:56;43.42;;;19.00;;
39846;SDS011;25517;52.422;10.782;2023-03-03T01:15:22;40.42;;;17.13;;
39846;SDS011;25517;52.422;10.782;2023-03-03T01:17:48;44.45;;;18.38;;
39846;SDS011;25517;52.422;10.782;2023-03-03T01:20:15;41.28;;;17.42;;
39846;SDS011;25517;52.422;10.782;2023-03-03T01:22:42;38.60;;;16.35;;
39846;SDS011;25517;52.422;10.782;2023-03-03T01:25:08;34.75;;;16.75;;
39846;SDS011;25517;52.422;10.782;2023-03-03T01:27:34;31.88;;;15.75;;
39846;SDS011;25517;52.422;10.782;2023-03-03T01:30:00;33.50;;;15.90;;
39846;SDS011;25517;52.422;10.782;2023-03-03T01:32:26;34.95;;;15.40;;
39846;SDS011;25517;52.422;10.782;2023-03-03T01:34:52;39.67;;;15.48;;
39846;SDS011;25517;52.422;10.782;2023-03-03T01:37:18;31.90;;;15.55;;
39846;SDS011;25517;52.422;10.782;2023-03-03T01:39:47;40.38;;;15.82;;
39846;SDS011;25517;52.422;10.782;2023-03-03T01:42:13;37.13;;;15.45;;
39846;SDS011;25517;52.422;10.782;2023-03-03T01:44:39;38.53;;;16.73;;
39846;SDS011;25517;52.422;10.782;2023-03-03T01:47:21;36.53;;;15.75;;
39846;SDS011;25517;52.422;10.782;2023-03-03T01:49:56;35.15;;;15.05;;
39846;SDS011;25517;52.422;10.782;2023-03-03T01:52:30;36.03;;;15.48;;
39846;SDS011;25517;52.422;10.782;2023-03-03T01:55:04;39.45;;;16.55;;
39846;SDS011;25517;52.422;10.782;2023-03-03T01:57:39;37.72;;;15.93;;
39846;SDS011;25517;52.422;10.782;2023-03-03T02:00:09;38.55;;;17.02;;
39846;SDS011;25517;52.422;10.782;2023-03-03T02:02:36;39.67;;;17.63;;
39846;SDS011;25517;52.422;10.782;2023-03-03T02:05:03;37.88;;;15.88;;
39846;SDS011;25517;52.422;10.782;2023-03-03T02:07:29;40.70;;;15.95;;
39846;SDS011;25517;52.422;10.782;2023-03-03T02:09:57;35.67;;;15.13;;
39846;SDS011;25517;52.422;10.782;2023-03-03T02:12:30;43.17;;;16.80;;
39846;SDS011;25517;52.422;10.782;2023-03-03T02:17:48;36.85;;;14.55;;
39846;SDS011;25517;52.422;10.782;2023-03-03T02:20:19;35.80;;;15.00;;
39846;SDS011;25517;52.422;10.782;2023-03-03T02:23:19;37.63;;;16.02;;
39846;SDS011;25517;52.422;10.782;2023-03-03T02:28:23;39.97;;;16.65;;
39846;SDS011;25517;52.422;10.782;2023-03-03T02:30:53;41.55;;;17.98;;
39846;SDS011;25517;52.422;10.782;2023-03-03T02:33:20;37.80;;;16.27;;
39846;SDS011;25517;52.422;10.782;2023-03-03T02:35:46;45.60;;;17.65;;
39846;SDS011;25517;52.422;10.782;2023-03-03T02:40:39;42.20;;;18.08;;
39846;SDS011;25517;52.422;10.782;2023-03-03T02:43:11;41.25;;;17.48;;
39846;SDS011;25517;52.422;10.782;2023-03-03T02:45:41;38.25;;;16.10;;
39846;SDS011;25517;52.422;10.782;2023-03-03T02:48:08;43.72;;;17.20;;
39846;SDS011;25517;52.422;10.782;2023-03-03T02:50:34;40.47;;;17.30;;
39846;SDS011;25517;52.422;10.782;2023-03-03T02:52:59;44.65;;;17.92;;
39846;SDS011;25517;52.422;10.782;2023-03-03T02:55:25;35.80;;;16.27;;
39846;SDS011;25517;52.422;10.782;2023-03-03T02:57:50;43.00;;;16.55;;
39846;SDS011;25517;52.422;10.782;2023-03-03T03:00:16;43.53;;;16.48;;
39846;SDS011;25517;52.422;10.782;2023-03-03T03:02:42;48.40;;;17.75;;
39846;SDS011;25517;52.422;10.782;2023-03-03T03:05:08;41.35;;;17.38;;
39846;SDS011;25517;52.422;10.782;2023-03-03T03:07:33;44.55;;;17.30;;
39846;SDS011;25517;52.422;10.782;2023-03-03T03:09:59;47.42;;;19.25;;
39846;SDS011;25517;52.422;10.782;2023-03-03T03:12:24;39.88;;;17.55;;
39846;SDS011;25517;52.422;10.782;2023-03-03T03:14:50;43.35;;;18.40;;
39846;SDS011;25517;52.422;10.782;2023-03-03T03:17:15;41.08;;;16.85;;
39846;SDS011;25517;52.422;10.782;2023-03-03T03:19:41;44.85;;;19.10;;
39846;SDS011;25517;52.422;10.782;2023-03-03T03:22:07;38.78;;;16.23;;
39846;SDS011;25517;52.422;10.782;2023-03-03T03:24:32;45.65;;;18.25;;
39846;SDS011;25517;52.422;10.782;2023-03-03T03:26:58;39.83;;;16.73;;
39846;SDS011;25517;52.422;10.782;2023-03-03T03:29:23;42.25;;;16.92;;
39846;SDS011;25517;52.422;10.782;2023-03-03T03:31:49;39.00;;;16.77;;
39846;SDS011;25517;52.422;10.782;2023-03-03T03:34:14;44.38;;;18.08;;
39846;SDS011;25517;52.422;10.782;2023-03-03T03:36:40;45.92;;;16.98;;
39846;SDS011;25517;52.422;10.782;2023-03-03T03:39:07;48.70;;;19.67;;
39846;SDS011;25517;52.422;10.782;2023-03-03T03:41:32;42.42;;;17.38;;
39846;SDS011;25517;52.422;10.782;2023-03-03T03:43:58;42.88;;;17.27;;
39846;SDS011;25517;52.422;10.782;2023-03-03T03:46:23;43.65;;;16.48;;
39846;SDS011;25517;52.422;10.782;2023-03-03T03:48:49;46.38;;;17.80;;
39846;SDS011;25517;52.422;10.782;2023-03-03T03:51:14;47.30;;;17.45;;
39846;SDS011;25517;52.422;10.782;2023-03-03T03:53:40;44.17;;;17.65;;
39846;SDS011;25517;52.422;10.782;2023-03-03T03:56:06;46.47;;;18.35;;
39846;SDS011;25517;52.422;10.782;2023-03-03T03:58:31;42.03;;;16.83;;
39846;SDS011;25517;52.422;10.782;2023-03-03T04:01:01;48.78;;;17.92;;
39846;SDS011;25517;52.422;10.782;2023-03-03T04:03:30;48.28;;;18.90;;
39846;SDS011;25517;52.422;10.782;2023-03-03T04:08:53;45.47;;;17.77;;
39846;SDS011;25517;52.422;10.782;2023-03-03T04:11:19;47.60;;;18.95;;
39846;SDS011;25517;52.422;10.782;2023-03-03T04:13:44;47.38;;;19.15;;
39846;SDS011;25517;52.422;10.782;2023-03-03T04:16:10;45.08;;;17.92;;
39846;SDS011;25517;52.422;10.782;2023-03-03T04:18:35;52.83;;;20.25;;
39846;SDS011;25517;52.422;10.782;2023-03-03T04:21:01;49.10;;;18.85;;
39846;SDS011;25517;52.422;10.782;2023-03-03T04:23:26;54.50;;;20.80;;
39846;SDS011;25517;52.422;10.782;2023-03-03T04:25:52;44.63;;;19.73;;
39846;SDS011;25517;52.422;10.782;2023-03-03T04:28:17;53.30;;;22.38;;
39846;SDS011;25517;52.422;10.782;2023-03-03T04:30:43;49.95;;;20.45;;
39846;SDS011;25517;52.422;10.782;2023-03-03T04:33:09;49.33;;;19.30;;
39846;SDS011;25517;52.422;10.782;2023-03-03T04:35:34;48.35;;;20.02;;
39846;SDS011;25517;52.422;10.782;2023-03-03T04:38:00;46.50;;;20.45;;
39846;SDS011;25517;52.422;10.782;2023-03-03T04:40:25;50.25;;;21.58;;
39846;SDS011;25517;52.422;10.782;2023-03-03T04:42:51;49.50;;;20.45;;
39846;SDS011;25517;52.422;10.782;2023-03-03T04:45:17;48.38;;;19.65;;
39846;SDS011;25517;52.422;10.782;2023-03-03T04:47:43;48.60;;;20.85;;
39846;SDS011;25517;52.422;10.782;2023-03-03T04:50:09;50.28;;;21.17;;
39846;SDS011;25517;52.422;10.782;2023-03-03T04:52:35;51.58;;;21.20;;
39846;SDS011;25517;52.422;10.782;2023-03-03T04:55:00;59.65;;;22.02;;
39846;SDS011;25517;52.422;10.782;2023-03-03T04:57:26;48.47;;;20.50;;
39846;SDS011;25517;52.422;10.782;2023-03-03T04:59:51;43.35;;;20.80;;
39846;SDS011;25517;52.422;10.782;2023-03-03T05:02:17;48.42;;;19.75;;
39846;SDS011;25517;52.422;10.782;2023-03-03T05:04:43;41.25;;;18.90;;
39846;SDS011;25517;52.422;10.782;2023-03-03T05:07:09;43.30;;;20.17;;
39846;SDS011;25517;52.422;10.782;2023-03-03T05:09:34;50.30;;;22.05;;
39846;SDS011;25517;52.422;10.782;2023-03-03T05:12:00;50.22;;;21.25;;
39846;SDS011;25517;52.422;10.782;2023-03-03T05:14:26;44.50;;;18.55;;
39846;SDS011;25517;52.422;10.782;2023-03-03T05:16:51;46.80;;;19.90;;
39846;SDS011;25517;52.422;10.782;2023-03-03T05:19:17;43.40;;;20.70;;
39846;SDS011;25517;52.422;10.782;2023-03-03T05:21:43;44.50;;;20.00;;
39846;SDS011;25517;52.422;10.782;2023-03-03T05:24:09;47.42;;;19.13;;
39846;SDS011;25517;52.422;10.782;2023-03-03T05:26:35;44.83;;;19.65;;
39846;SDS011;25517;52.422;10.782;2023-03-03T05:29:01;44.88;;;20.52;;
39846;SDS011;25517;52.422;10.782;2023-03-03T05:31:27;53.67;;;22.65;;
39846;SDS011;25517;52.422;10.782;2023-03-03T05:33:53;48.03;;;21.02;;
39846;SDS011;25517;52.422;10.782;2023-03-03T05:36:18;52.88;;;21.85;;
39846;SDS011;25517;52.422;10.782;2023-03-03T05:38:44;54.58;;;22.98;;
39846;SDS011;25517;52.422;10.782;2023-03-03T05:41:10;45.90;;;18.83;;
39846;SDS011;25517;52.422;10.782;2023-03-03T05:43:35;56.38;;;20.63;;
39846;SDS011;25517;52.422;10.782;2023-03-03T05:46:01;48.58;;;22.10;;
39846;SDS011;25517;52.422;10.782;2023-03-03T05:48:27;48.10;;;21.42;;
39846;SDS011;25517;52.422;10.782;2023-03-03T05:50:53;45.00;;;20.15;;
39846;SDS011;25517;52.422;10.782;2023-03-03T05:53:18;46.00;;;19.50;;
39846;SDS011;25517;52.422;10.782;2023-03-03T05:55:44;47.53;;;21.05;;
39846;SDS011;25517;52.422;10.782;2023-03-03T05:58:12;48.53;;;20.67;;
39846;SDS011;25517;52.422;10.782;2023-03-03T06:00:45;43.03;;;19.60;;
39846;SDS011;25517;52.422;10.782;2023-03-03T06:03:11;40.28;;;18.58;;
39846;SDS011;25517;52.422;10.782;2023-03-03T06:05:37;40.25;;;19.80;;
39846;SDS011;25517;52.422;10.782;2023-03-03T06:08:02;38.92;;;18.92;;
39846;SDS011;25517;52.422;10.782;2023-03-03T06:10:28;47.60;;;20.50;;
39846;SDS011;25517;52.422;10.782;2023-03-03T06:12:54;54.50;;;22.75;;
39846;SDS011;25517;52.422;10.782;2023-03-03T06:15:20;44.00;;;19.60;;
39846;SDS011;25517;52.422;10.782;2023-03-03T06:17:46;41.38;;;18.92;;
39846;SDS011;25517;52.422;10.782;2023-03-03T06:20:12;44.70;;;18.92;;
39846;SDS011;25517;52.422;10.782;2023-03-03T06:22:37;50.80;;;21.13;;
39846;SDS011;25517;52.422;10.782;2023-03-03T06:25:03;44.38;;;19.10;;
39846;SDS011;25517;52.422;10.782;2023-03-03T06:27:29;48.40;;;21.55;;
39846;SDS011;25517;52.422;10.782;2023-03-03T06:29:55;39.50;;;19.02;;
39846;SDS011;25517;52.422;10.782;2023-03-03T06:32:20;42.95;;;19.20;;
39846;SDS011;25517;52.422;10.782;2023-03-03T06:34:46;41.25;;;18.05;;
39846;SDS011;25517;52.422;10.782;2023-03-03T06:37:11;49.90;;;19.70;;
39846;SDS011;25517;52.422;10.782;2023-03-03T06:39:37;45.88;;;19.65;;
39846;SDS011;25517;52.422;10.782;2023-03-03T06:42:02;49.08;;;20.80;;
39846;SDS011;25517;52.422;10.782;2023-03-03T06:44:28;49.50;;;19.35;;
39846;SDS011;25517;52.422;10.782;2023-03-03T06:46:53;45.58;;;20.27;;
39846;SDS011;25517;52.422;10.782;2023-03-03T06:49:21;46.58;;;21.13;;
39846;SDS011;25517;52.422;10.782;2023-03-03T06:51:46;46.08;;;19.58;;
39846;SDS011;25517;52.422;10.782;2023-03-03T06:54:15;46.60;;;19.95;;
39846;SDS011;25517;52.422;10.782;2023-03-03T06:56:43;48.95;;;20.48;;
39846;SDS011;25517;52.422;10.782;2023-03-03T06:59:16;41.35;;;19.45;;
39846;SDS011;25517;52.422;10.782;2023-03-03T07:01:44;46.05;;;20.42;;
39846;SDS011;25517;52.422;10.782;2023-03-03T07:04:23;43.50;;;18.05;;
39846;SDS011;25517;52.422;10.782;2023-03-03T07:06:50;42.97;;;20.00;;
39846;SDS011;25517;52.422;10.782;2023-03-03T07:09:28;47.83;;;20.25;;
39846;SDS011;25517;52.422;10.782;2023-03-03T07:11:56;46.67;;;19.95;;
39846;SDS011;25517;52.422;10.782;2023-03-03T07:14:27;43.22;;;19.23;;
39846;SDS011;25517;52.422;10.782;2023-03-03T07:16:57;44.35;;;19.00;;
39846;SDS011;25517;52.422;10.782;2023-03-03T07:19:34;43.60;;;19.63;;
39846;SDS011;25517;52.422;10.782;2023-03-03T07:24:38;42.55;;;19.20;;
39846;SDS011;25517;52.422;10.782;2023-03-03T07:29:31;39.25;;;18.85;;
39846;SDS011;25517;52.422;10.782;2023-03-03T07:31:58;44.13;;;19.17;;
39846;SDS011;25517;52.422;10.782;2023-03-03T07:34:26;48.33;;;19.48;;
39846;SDS011;25517;52.422;10.782;2023-03-03T07:37:03;36.75;;;17.38;;
39846;SDS011;25517;52.422;10.782;2023-03-03T07:39:37;40.00;;;18.70;;
39846;SDS011;25517;52.422;10.782;2023-03-03T07:44:41;42.88;;;18.20;;
39846;SDS011;25517;52.422;10.782;2023-03-03T07:47:14;41.05;;;18.77;;
39846;SDS011;25517;52.422;10.782;2023-03-03T07:49:44;41.90;;;18.55;;
39846;SDS011;25517;52.422;10.782;2023-03-03T07:57:21;39.60;;;17.52;;
39846;SDS011;25517;52.422;10.782;2023-03-03T08:00:00;38.22;;;18.70;;
39846;SDS011;25517;52.422;10.782;2023-03-03T08:02:59;43.13;;;19.85;;
39846;SDS011;25517;52.422;10.782;2023-03-03T08:11:06;41.03;;;19.45;;
39846;SDS011;25517;52.422;10.782;2023-03-03T08:18:37;39.55;;;17.80;;
39846;SDS011;25517;52.422;10.782;2023-03-03T08:23:34;36.28;;;17.95;;
39846;SDS011;25517;52.422;10.782;2023-03-03T08:26:00;40.00;;;19.23;;
39846;SDS011;25517;52.422;10.782;2023-03-03T08:28:25;48.00;;;21.50;;
39846;SDS011;25517;52.422;10.782;2023-03-03T08:30:51;38.40;;;18.02;;
39846;SDS011;25517;52.422;10.782;2023-03-03T08:33:17;42.63;;;18.33;;
39846;SDS011;25517;52.422;10.782;2023-03-03T08:35:43;37.30;;;18.00;;
39846;SDS011;25517;52.422;10.782;2023-03-03T08:38:09;37.38;;;17.40;;
39846;SDS011;25517;52.422;10.782;2023-03-03T08:40:37;42.17;;;18.10;;
39846;SDS011;25517;52.422;10.782;2023-03-03T08:43:03;38.85;;;17.95;;
39846;SDS011;25517;52.422;10.782;2023-03-03T08:45:28;40.80;;;19.40;;
39846;SDS011;25517;52.422;10.782;2023-03-03T08:47:57;41.20;;;18.83;;
39846;SDS011;25517;52.422;10.782;2023-03-03T08:50:23;38.38;;;17.17;;
39846;SDS011;25517;52.422;10.782;2023-03-03T08:52:50;37.03;;;18.05;;
39846;SDS011;25517;52.422;10.782;2023-03-03T08:55:15;33.88;;;16.60;;
39846;SDS011;25517;52.422;10.782;2023-03-03T08:57:41;35.53;;;17.27;;
39846;SDS011;25517;52.422;10.782;2023-03-03T09:00:08;35.70;;;17.58;;
39846;SDS011;25517;52.422;10.782;2023-03-03T09:02:36;31.88;;;17.05;;
39846;SDS011;25517;52.422;10.782;2023-03-03T09:05:02;39.85;;;18.67;;
39846;SDS011;25517;52.422;10.782;2023-03-03T09:07:28;36.63;;;17.85;;
39846;SDS011;25517;52.422;10.782;2023-03-03T09:09:54;37.40;;;18.15;;
39846;SDS011;25517;52.422;10.782;2023-03-03T09:12:33;32.95;;;16.10;;
39846;SDS011;25517;52.422;10.782;2023-03-03T09:15:12;34.78;;;17.20;;
39846;SDS011;25517;52.422;10.782;2023-03-03T09:17:48;39.35;;;18.13;;
39846;SDS011;25517;52.422;10.782;2023-03-03T09:20:21;36.63;;;17.55;;
39846;SDS011;25517;52.422;10.782;2023-03-03T09:25:47;36.70;;;16.75;;
39846;SDS011;25517;52.422;10.782;2023-03-03T09:30:48;37.00;;;17.80;;
39846;SDS011;25517;52.422;10.782;2023-03-03T09:33:25;31.30;;;15.50;;
39846;SDS011;25517;52.422;10.782;2023-03-03T09:36:36;34.38;;;16.15;;
39846;SDS011;25517;52.422;10.782;2023-03-03T09:38:48;38.30;;;18.60;;
39846;SDS011;25517;52.422;10.782;2023-03-03T09:48:56;34.55;;;16.63;;
39846;SDS011;25517;52.422;10.782;2023-03-03T09:56:54;35.38;;;16.15;;
39846;SDS011;25517;52.422;10.782;2023-03-03T10:07:40;33.13;;;15.75;;
39846;SDS011;25517;52.422;10.782;2023-03-03T10:10:44;33.83;;;16.60;;
39846;SDS011;25517;52.422;10.782;2023-03-03T10:29:57;27.65;;;14.88;;
39846;SDS011;25517;52.422;10.782;2023-03-03T10:35:17;28.63;;;15.73;;
39846;SDS011;25517;52.422;10.782;2023-03-03T10:40:50;31.13;;;15.98;;
39846;SDS011;25517;52.422;10.782;2023-03-03T10:54:20;35.10;;;16.45;;
39846;SDS011;25517;52.422;10.782;2023-03-03T10:59:43;29.98;;;15.32;;
39846;SDS011;25517;52.422;10.782;2023-03-03T11:02:38;34.63;;;17.23;;
39846;SDS011;25517;52.422;10.782;2023-03-03T11:08:03;29.13;;;15.52;;
39846;SDS011;25517;52.422;10.782;2023-03-03T11:10:59;30.85;;;15.85;;
39846;SDS011;25517;52.422;10.782;2023-03-03T11:13:46;31.15;;;16.27;;
39846;SDS011;25517;52.422;10.782;2023-03-03T11:16:44;32.25;;;17.00;;
39846;SDS011;25517;52.422;10.782;2023-03-03T11:22:20;29.17;;;14.40;;
39846;SDS011;25517;52.422;10.782;2023-03-03T11:33:24;26.95;;;14.85;;
39846;SDS011;25517;52.422;10.782;2023-03-03T11:38:30;27.40;;;14.10;;
39846;SDS011;25517;52.422;10.782;2023-03-03T11:41:00;24.88;;;13.48;;
39846;SDS011;25517;52.422;10.782;2023-03-03T11:43:36;22.35;;;13.07;;
39846;SDS011;25517;52.422;10.782;2023-03-03T11:46:10;25.85;;;14.57;;
39846;SDS011;25517;52.422;10.782;2023-03-03T11:51:40;23.33;;;12.70;;
39846;SDS011;25517;52.422;10.782;2023-03-03T11:55:19;29.33;;;13.82;;
39846;SDS011;25517;52.422;10.782;2023-03-03T11:57:39;24.83;;;13.68;;
39846;SDS011;25517;52.422;10.782;2023-03-03T12:02:45;24.75;;;13.25;;
39846;SDS011;25517;52.422;10.782;2023-03-03T12:10:45;25.85;;;14.77;;
39846;SDS011;25517;52.422;10.782;2023-03-03T12:13:41;26.55;;;13.43;;
39846;SDS011;25517;52.422;10.782;2023-03-03T12:16:47;31.45;;;14.65;;
39846;SDS011;25517;52.422;10.782;2023-03-03T12:35:29;21.48;;;13.40;;
39846;SDS011;25517;52.422;10.782;2023-03-03T12:38:05;23.05;;;13.48;;
39846;SDS011;25517;52.422;10.782;2023-03-03T12:40:37;23.10;;;14.52;;
39846;SDS011;25517;52.422;10.782;2023-03-03T12:43:31;23.35;;;13.98;;
39846;SDS011;25517;52.422;10.782;2023-03-03T12:48:45;23.58;;;13.15;;
39846;SDS011;25517;52.422;10.782;2023-03-03T12:52:12;31.60;;;14.75;;
39846;SDS011;25517;52.422;10.782;2023-03-03T12:57:18;25.05;;;13.70;;
39846;SDS011;25517;52.422;10.782;2023-03-03T13:05:22;26.25;;;14.52;;
39846;SDS011;25517;52.422;10.782;2023-03-03T13:10:44;23.80;;;13.73;;
39846;SDS011;25517;52.422;10.782;2023-03-03T13:13:30;26.10;;;14.18;;
39846;SDS011;25517;52.422;10.782;2023-03-03T13:16:10;22.15;;;13.80;;
39846;SDS011;25517;52.422;10.782;2023-03-03T13:18:47;25.60;;;15.15;;
39846;SDS011;25517;52.422;10.782;2023-03-03T13:21:29;26.15;;;14.43;;
39846;SDS011;25517;52.422;10.782;2023-03-03T13:24:17;24.48;;;14.95;;
39846;SDS011;25517;52.422;10.782;2023-03-03T13:27:01;27.67;;;16.35;;
39846;SDS011;25517;52.422;10.782;2023-03-03T13:29:40;26.20;;;15.00;;
39846;SDS011;25517;52.422;10.782;2023-03-03T13:32:22;23.88;;;14.57;;
39846;SDS011;25517;52.422;10.782;2023-03-03T13:34:56;26.33;;;15.75;;
39846;SDS011;25517;52.422;10.782;2023-03-03T13:42:39;27.58;;;14.98;;
39846;SDS011;25517;52.422;10.782;2023-03-03T13:45:53;28.50;;;15.40;;
39846;SDS011;25517;52.422;10.782;2023-03-03T13:53:27;28.10;;;16.20;;
39846;SDS011;25517;52.422;10.782;2023-03-03T13:56:21;28.08;;;15.68;;
39846;SDS011;25517;52.422;10.782;2023-03-03T13:59:21;27.80;;;15.45;;
39846;SDS011;25517;52.422;10.782;2023-03-03T14:05:00;28.20;;;14.70;;
39846;SDS011;25517;52.422;10.782;2023-03-03T14:07:33;28.80;;;15.98;;
39846;SDS011;25517;52.422;10.782;2023-03-03T14:10:23;25.08;;;14.25;;
39846;SDS011;25517;52.422;10.782;2023-03-03T14:13:03;25.52;;;15.27;;
39846;SDS011;25517;52.422;10.782;2023-03-03T14:15:34;24.60;;;14.57;;
39846;SDS011;25517;52.422;10.782;2023-03-03T14:18:19;29.33;;;15.70;;
39846;SDS011;25517;52.422;10.782;2023-03-03T14:20:58;23.45;;;13.90;;
39846;SDS011;25517;52.422;10.782;2023-03-03T14:26:50;25.95;;;14.65;;
39846;SDS011;25517;52.422;10.782;2023-03-03T14:29:20;26.02;;;15.40;;
39846;SDS011;25517;52.422;10.782;2023-03-03T14:31:52;28.95;;;15.57;;
39846;SDS011;25517;52.422;10.782;2023-03-03T14:36:47;25.23;;;14.82;;
39846;SDS011;25517;52.422;10.782;2023-03-03T14:39:37;25.90;;;14.52;;
39846;SDS011;25517;52.422;10.782;2023-03-03T14:42:11;27.42;;;15.07;;
39846;SDS011;25517;52.422;10.782;2023-03-03T14:47:19;28.33;;;15.85;;
39846;SDS011;25517;52.422;10.782;2023-03-03T14:49:50;28.45;;;16.70;;
39846;SDS011;25517;52.422;10.782;2023-03-03T14:54:50;35.00;;;17.30;;
39846;SDS011;25517;52.422;10.782;2023-03-03T14:57:22;36.97;;;17.95;;
39846;SDS011;25517;52.422;10.782;2023-03-03T15:02:57;32.60;;;16.65;;
39846;SDS011;25517;52.422;10.782;2023-03-03T15:05:35;33.40;;;16.92;;
39846;SDS011;25517;52.422;10.782;2023-03-03T15:10:39;33.80;;;16.48;;
39846;SDS011;25517;52.422;10.782;2023-03-03T15:21:18;39.72;;;18.55;;
39846;SDS011;25517;52.422;10.782;2023-03-03T15:24:09;35.55;;;18.73;;
39846;SDS011;25517;52.422;10.782;2023-03-03T15:26:54;39.15;;;20.00;;
39846;SDS011;25517;52.422;10.782;2023-03-03T15:29:53;44.40;;;20.02;;
39846;SDS011;25517;52.422;10.782;2023-03-03T15:33:31;40.17;;;20.42;;
39846;SDS011;25517;52.422;10.782;2023-03-03T15:40:56;45.58;;;20.35;;
39846;SDS011;25517;52.422;10.782;2023-03-03T15:52:23;49.28;;;23.00;;
39846;SDS011;25517;52.422;10.782;2023-03-03T16:00:33;57.55;;;24.67;;
39846;SDS011;25517;52.422;10.782;2023-03-03T16:03:23;52.88;;;24.75;;
39846;SDS011;25517;52.422;10.782;2023-03-03T16:08:53;54.33;;;24.98;;
39846;SDS011;25517;52.422;10.782;2023-03-03T16:11:46;56.88;;;26.55;;
39846;SDS011;25517;52.422;10.782;2023-03-03T16:17:38;52.55;;;23.38;;
39846;SDS011;25517;52.422;10.782;2023-03-03T16:20:44;56.70;;;23.80;;
39846;SDS011;25517;52.422;10.782;2023-03-03T16:23:29;50.47;;;22.27;;
39846;SDS011;25517;52.422;10.782;2023-03-03T16:25:57;51.88;;;24.55;;
39846;SDS011;25517;52.422;10.782;2023-03-03T16:31:35;53.85;;;22.48;;
39846;SDS011;25517;52.422;10.782;2023-03-03T16:34:18;47.55;;;21.90;;
39846;SDS011;25517;52.422;10.782;2023-03-03T16:37:11;48.58;;;21.15;;
39846;SDS011;25517;52.422;10.782;2023-03-03T16:42:52;46.22;;;20.73;;
39846;SDS011;25517;52.422;10.782;2023-03-03T16:45:41;45.67;;;19.80;;
39846;SDS011;25517;52.422;10.782;2023-03-03T16:48:19;51.75;;;21.48;;
39846;SDS011;25517;52.422;10.782;2023-03-03T16:56:21;49.42;;;22.52;;
39846;SDS011;25517;52.422;10.782;2023-03-03T16:59:32;49.50;;;20.55;;
39846;SDS011;25517;52.422;10.782;2023-03-03T17:10:14;48.72;;;20.67;;
39846;SDS011;25517;52.422;10.782;2023-03-03T17:13:03;46.72;;;21.45;;
39846;SDS011;25517;52.422;10.782;2023-03-03T17:18:50;47.97;;;20.73;;
39846;SDS011;25517;52.422;10.782;2023-03-03T17:24:00;54.40;;;23.10;;
39846;SDS011;25517;52.422;10.782;2023-03-03T17:32:11;65.38;;;27.83;;
39846;SDS011;25517;52.422;10.782;2023-03-03T17:45:21;66.78;;;29.55;;
39846;SDS011;25517;52.422;10.782;2023-03-03T17:55:35;78.93;;;33.53;;
39846;SDS011;25517;52.422;10.782;2023-03-03T18:01:18;77.32;;;31.35;;
39846;SDS011;25517;52.422;10.782;2023-03-03T18:03:54;86.47;;;35.47;;
39846;SDS011;25517;52.422;10.782;2023-03-03T18:20:55;78.72;;;30.02;;
39846;SDS011;25517;52.422;10.782;2023-03-03T18:29:07;74.60;;;29.17;;
39846;SDS011;25517;52.422;10.782;2023-03-03T18:32:03;77.97;;;29.23;;
39846;SDS011;25517;52.422;10.782;2023-03-03T18:34:38;82.05;;;30.85;;
39846;SDS011;25517;52.422;10.782;2023-03-03T18:42:31;82.90;;;30.92;;
39846;SDS011;25517;52.422;10.782;2023-03-03T18:45:48;79.65;;;30.13;;
39846;SDS011;25517;52.422;10.782;2023-03-03T18:50:39;82.88;;;31.50;;
39846;SDS011;25517;52.422;10.782;2023-03-03T18:55:46;82.07;;;30.60;;
39846;SDS011;25517;52.422;10.782;2023-03-03T19:03:59;88.97;;;33.45;;
39846;SDS011;25517;52.422;10.782;2023-03-03T19:09:10;91.47;;;33.85;;
39846;SDS011;25517;52.422;10.782;2023-03-03T19:11:42;100.43;;;36.03;;
39846;SDS011;25517;52.422;10.782;2023-03-03T19:16:50;94.40;;;35.08;;
39846;SDS011;25517;52.422;10.782;2023-03-03T19:19:17;100.70;;;35.45;;
39846;SDS011;25517;52.422;10.782;2023-03-03T19:21:46;92.88;;;33.75;;
39846;SDS011;25517;52.422;10.782;2023-03-03T19:29:42;86.47;;;32.40;;
39846;SDS011;25517;52.422;10.782;2023-03-03T19:35:37;93.72;;;33.97;;
39846;SDS011;25517;52.422;10.782;2023-03-03T19:41:18;92.40;;;33.35;;
39846;SDS011;25517;52.422;10.782;2023-03-03T19:43:58;90.18;;;32.90;;
39846;SDS011;25517;52.422;10.782;2023-03-03T19:46:51;90.28;;;32.30;;
39846;SDS011;25517;52.422;10.782;2023-03-03T19:52:21;77.93;;;31.58;;
39846;SDS011;25517;52.422;10.782;2023-03-03T20:00:31;76.20;;;28.40;;
39846;SDS011;25517;52.422;10.782;2023-03-03T20:03:20;77.10;;;30.98;;
39846;SDS011;25517;52.422;10.782;2023-03-03T20:15:06;72.30;;;29.70;;
39846;SDS011;25517;52.422;10.782;2023-03-03T20:26:14;74.05;;;29.10;;
39846;SDS011;25517;52.422;10.782;2023-03-03T20:46:01;82.78;;;30.65;;
39846;SDS011;25517;52.422;10.782;2023-03-03T20:54:25;69.32;;;28.52;;
39846;SDS011;25517;52.422;10.782;2023-03-03T20:56:57;68.80;;;26.98;;
39846;SDS011;25517;52.422;10.782;2023-03-03T20:59:34;61.58;;;26.45;;
39846;SDS011;25517;52.422;10.782;2023-03-03T21:05:07;65.10;;;27.70;;
39846;SDS011;25517;52.422;10.782;2023-03-03T21:08:00;61.40;;;26.17;;
39846;SDS011;25517;52.422;10.782;2023-03-03T21:10:34;60.97;;;27.30;;
39846;SDS011;25517;52.422;10.782;2023-03-03T21:16:01;58.10;;;25.73;;
39846;SDS011;25517;52.422;10.782;2023-03-03T21:18:30;65.57;;;26.17;;
39846;SDS011;25517;52.422;10.782;2023-03-03T21:20:56;59.17;;;25.17;;